sensor_id;sensor_type;location;lat;lon;timestamp;temperature;humidity
5723;DHT22;2886;49.722;8.612;2022-10-26T00:01:32;12.30;99.90
5723;DHT22;2886;49.722;8.612;2022-10-26T00:03:58;12.30;99.90
5723;DHT22;2886;49.722;8.612;2022-10-26T00:06:25;12.30;99.90
5723;DHT22;2886;49.722;8.612;2022-10-26T00:08:52;12.40;99.90
5723;DHT22;2886;49.722;8.612;2022-10-26T00:11:19;12.40;99.90
5723;DHT22;2886;49.722;8.612;2022-10-26T00:13:46;12.50;99.90
5723;DHT22;2886;49.722;8.612;2022-10-26T00:16:19;12.40;99.90
5723;DHT22;2886;49.722;8.612;2022-10-26T00:18:45;12.40;99.90
5723;DHT22;2886;49.722;8.612;2022-10-26T00:21:11;12.40;99.90
5723;DHT22;2886;49.722;8.612;2022-10-26T00:23:37;12.50;99.90
5723;DHT22;2886;49.722;8.612;2022-10-26T00:26:03;12.50;99.90
5723;DHT22;2886;49.722;8.612;2022-10-26T00:28:29;12.50;99.90
5723;DHT22;2886;49.722;8.612;2022-10-26T00:30:58;12.50;99.90
5723;DHT22;2886;49.722;8.612;2022-10-26T00:33:24;12.50;99.90
5723;DHT22;2886;49.722;8.612;2022-10-26T00:35:53;12.50;99.90
5723;DHT22;2886;49.722;8.612;2022-10-26T00:38:19;12.50;99.90
5723;DHT22;2886;49.722;8.612;2022-10-26T00:40:45;12.50;99.90
5723;DHT22;2886;49.722;8.612;2022-10-26T00:45:45;12.50;99.90
5723;DHT22;2886;49.722;8.612;2022-10-26T00:48:24;12.50;99.90
5723;DHT22;2886;49.722;8.612;2022-10-26T00:50:52;12.50;99.90
5723;DHT22;2886;49.722;8.612;2022-10-26T00:53:18;12.50;99.90
5723;DHT22;2886;49.722;8.612;2022-10-26T00:55:47;12.50;99.90
5723;DHT22;2886;49.722;8.612;2022-10-26T00:58:15;12.40;99.90
5723;DHT22;2886;49.722;8.612;2022-10-26T01:00:41;12.50;99.90
5723;DHT22;2886;49.722;8.612;2022-10-26T01:03:09;12.50;99.90
5723;DHT22;2886;49.722;8.612;2022-10-26T01:05:38;12.50;99.90
5723;DHT22;2886;49.722;8.612;2022-10-26T01:08:06;12.50;99.90
5723;DHT22;2886;49.722;8.612;2022-10-26T01:10:33;12.50;99.90
5723;DHT22;2886;49.722;8.612;2022-10-26T01:13:00;12.50;99.90
5723;DHT22;2886;49.722;8.612;2022-10-26T01:16:29;12.50;99.90
5723;DHT22;2886;49.722;8.612;2022-10-26T01:18:44;12.50;99.90
5723;DHT22;2886;49.722;8.612;2022-10-26T01:38:44;12.40;99.90
5723;DHT22;2886;49.722;8.612;2022-10-26T01:43:11;12.40;99.90
5723;DHT22;2886;49.722;8.612;2022-10-26T01:45:41;12.40;99.90
5723;DHT22;2886;49.722;8.612;2022-10-26T01:48:11;12.40;99.90
5723;DHT22;2886;49.722;8.612;2022-10-26T01:50:39;12.50;99.90
5723;DHT22;2886;49.722;8.612;2022-10-26T01:53:05;12.40;99.90
5723;DHT22;2886;49.722;8.612;2022-10-26T01:55:45;12.30;99.90
5723;DHT22;2886;49.722;8.612;2022-10-26T02:09:36;12.20;99.90
5723;DHT22;2886;49.722;8.612;2022-10-26T02:12:14;12.40;99.90
5723;DHT22;2886;49.722;8.612;2022-10-26T02:14:57;12.40;99.90
5723;DHT22;2886;49.722;8.612;2022-10-26T02:17:35;12.40;99.90
5723;DHT22;2886;49.722;8.612;2022-10-26T02:20:07;12.40;99.90
5723;DHT22;2886;49.722;8.612;2022-10-26T02:22:46;12.40;99.90
5723;DHT22;2886;49.722;8.612;2022-10-26T02:25:23;12.40;99.90
5723;DHT22;2886;49.722;8.612;2022-10-26T02:28:01;12.30;99.90
5723;DHT22;2886;49.722;8.612;2022-10-26T02:30:29;12.30;99.90
5723;DHT22;2886;49.722;8.612;2022-10-26T02:32:56;12.30;99.90
5723;DHT22;2886;49.722;8.612;2022-10-26T02:35:27;12.30;99.90
5723;DHT22;2886;49.722;8.612;2022-10-26T02:37:56;12.30;99.90
5723;DHT22;2886;49.722;8.612;2022-10-26T02:40:26;12.30;99.90
5723;DHT22;2886;49.722;8.612;2022-10-26T02:42:53;12.40;99.90
5723;DHT22;2886;49.722;8.612;2022-10-26T02:45:24;12.50;99.90
5723;DHT22;2886;49.722;8.612;2022-10-26T02:47:53;12.40;99.90
5723;DHT22;2886;49.722;8.612;2022-10-26T02:50:25;12.40;99.90
5723;DHT22;2886;49.722;8.612;2022-10-26T02:55:31;12.40;99.90
5723;DHT22;2886;49.722;8.612;2022-10-26T02:58:02;12.40;99.90
5723;DHT22;2886;49.722;8.612;2022-10-26T03:00:30;12.40;99.90
5723;DHT22;2886;49.722;8.612;2022-10-26T03:02:57;12.40;99.90
5723;DHT22;2886;49.722;8.612;2022-10-26T03:05:26;12.40;99.90
5723;DHT22;2886;49.722;8.612;2022-10-26T03:07:52;12.40;99.90
5723;DHT22;2886;49.722;8.612;2022-10-26T03:10:19;12.30;99.90
5723;DHT22;2886;49.722;8.612;2022-10-26T03:12:45;12.30;99.90
5723;DHT22;2886;49.722;8.612;2022-10-26T03:15:11;12.30;99.90
5723;DHT22;2886;49.722;8.612;2022-10-26T03:17:36;12.30;99.90
5723;DHT22;2886;49.722;8.612;2022-10-26T03:20:02;12.20;99.90
5723;DHT22;2886;49.722;8.612;2022-10-26T03:22:28;12.30;99.90
5723;DHT22;2886;49.722;8.612;2022-10-26T03:24:54;12.30;99.90
5723;DHT22;2886;49.722;8.612;2022-10-26T03:27:20;12.30;99.90
5723;DHT22;2886;49.722;8.612;2022-10-26T03:29:45;12.30;99.90
5723;DHT22;2886;49.722;8.612;2022-10-26T03:32:11;12.40;99.90
5723;DHT22;2886;49.722;8.612;2022-10-26T03:34:37;12.40;99.90
5723;DHT22;2886;49.722;8.612;2022-10-26T03:37:05;12.30;99.90
5723;DHT22;2886;49.722;8.612;2022-10-26T03:39:31;12.40;99.90
5723;DHT22;2886;49.722;8.612;2022-10-26T03:41:56;12.30;99.90
5723;DHT22;2886;49.722;8.612;2022-10-26T03:44:23;12.30;99.90
5723;DHT22;2886;49.722;8.612;2022-10-26T03:46:49;12.30;99.90
5723;DHT22;2886;49.722;8.612;2022-10-26T03:49:21;12.30;99.90
5723;DHT22;2886;49.722;8.612;2022-10-26T03:51:48;12.30;99.90
5723;DHT22;2886;49.722;8.612;2022-10-26T03:54:17;12.40;99.90
5723;DHT22;2886;49.722;8.612;2022-10-26T03:56:43;12.40;99.90
5723;DHT22;2886;49.722;8.612;2022-10-26T03:59:09;12.30;99.90
5723;DHT22;2886;49.722;8.612;2022-10-26T04:01:34;12.30;99.90
5723;DHT22;2886;49.722;8.612;2022-10-26T04:04:00;12.30;99.90
5723;DHT22;2886;49.722;8.612;2022-10-26T04:06:26;12.40;99.90
5723;DHT22;2886;49.722;8.612;2022-10-26T04:08:52;12.40;99.90
5723;DHT22;2886;49.722;8.612;2022-10-26T04:11:22;12.40;99.90
5723;DHT22;2886;49.722;8.612;2022-10-26T04:13:48;12.40;99.90
5723;DHT22;2886;49.722;8.612;2022-10-26T04:16:13;12.30;99.90
5723;DHT22;2886;49.722;8.612;2022-10-26T04:18:39;12.30;99.90
5723;DHT22;2886;49.722;8.612;2022-10-26T04:21:05;12.30;99.90
5723;DHT22;2886;49.722;8.612;2022-10-26T04:23:30;12.30;99.90
5723;DHT22;2886;49.722;8.612;2022-10-26T04:25:56;12.40;99.90
5723;DHT22;2886;49.722;8.612;2022-10-26T04:28:22;12.40;99.90
5723;DHT22;2886;49.722;8.612;2022-10-26T04:30:47;12.40;99.90
5723;DHT22;2886;49.722;8.612;2022-10-26T04:33:13;12.40;99.90
5723;DHT22;2886;49.722;8.612;2022-10-26T04:35:38;12.40;99.90
5723;DHT22;2886;49.722;8.612;2022-10-26T04:38:05;12.40;99.90
5723;DHT22;2886;49.722;8.612;2022-10-26T04:40:32;12.30;99.90
5723;DHT22;2886;49.722;8.612;2022-10-26T04:42:58;12.20;99.90
5723;DHT22;2886;49.722;8.612;2022-10-26T04:45:24;12.20;99.90
5723;DHT22;2886;49.722;8.612;2022-10-26T04:48:19;12.10;99.90
5723;DHT22;2886;49.722;8.612;2022-10-26T04:50:44;12.00;99.90
5723;DHT22;2886;49.722;8.612;2022-10-26T04:53:10;12.00;99.90
5723;DHT22;2886;49.722;8.612;2022-10-26T04:55:36;11.90;99.90
5723;DHT22;2886;49.722;8.612;2022-10-26T04:58:04;11.90;99.90
5723;DHT22;2886;49.722;8.612;2022-10-26T05:00:30;11.90;99.90
5723;DHT22;2886;49.722;8.612;2022-10-26T05:03:00;11.90;99.90
5723;DHT22;2886;49.722;8.612;2022-10-26T05:05:27;11.90;99.90
5723;DHT22;2886;49.722;8.612;2022-10-26T05:07:54;11.80;99.90
5723;DHT22;2886;49.722;8.612;2022-10-26T05:10:20;11.80;99.90
5723;DHT22;2886;49.722;8.612;2022-10-26T05:12:53;11.80;99.90
5723;DHT22;2886;49.722;8.612;2022-10-26T05:15:20;11.90;99.90
5723;DHT22;2886;49.722;8.612;2022-10-26T05:17:46;11.90;99.90
5723;DHT22;2886;49.722;8.612;2022-10-26T05:20:12;11.80;99.90
5723;DHT22;2886;49.722;8.612;2022-10-26T05:22:41;11.80;99.90
5723;DHT22;2886;49.722;8.612;2022-10-26T05:25:08;11.80;99.90
5723;DHT22;2886;49.722;8.612;2022-10-26T05:27:34;11.80;99.90
5723;DHT22;2886;49.722;8.612;2022-10-26T05:29:59;11.70;99.90
5723;DHT22;2886;49.722;8.612;2022-10-26T05:32:25;11.80;99.90
5723;DHT22;2886;49.722;8.612;2022-10-26T05:34:51;11.80;99.90
5723;DHT22;2886;49.722;8.612;2022-10-26T05:37:16;11.80;99.90
5723;DHT22;2886;49.722;8.612;2022-10-26T05:39:42;11.80;99.90
5723;DHT22;2886;49.722;8.612;2022-10-26T05:42:08;11.80;99.90
5723;DHT22;2886;49.722;8.612;2022-10-26T05:44:34;11.90;99.90
5723;DHT22;2886;49.722;8.612;2022-10-26T05:46:59;12.00;99.90
5723;DHT22;2886;49.722;8.612;2022-10-26T05:49:25;12.00;99.90
5723;DHT22;2886;49.722;8.612;2022-10-26T05:51:50;12.10;99.90
5723;DHT22;2886;49.722;8.612;2022-10-26T05:54:16;12.00;99.90
5723;DHT22;2886;49.722;8.612;2022-10-26T05:56:42;12.00;99.90
5723;DHT22;2886;49.722;8.612;2022-10-26T05:59:15;12.00;99.90
5723;DHT22;2886;49.722;8.612;2022-10-26T06:04:34;12.00;99.90
5723;DHT22;2886;49.722;8.612;2022-10-26T06:07:04;12.00;99.90
5723;DHT22;2886;49.722;8.612;2022-10-26T06:09:33;12.10;99.90
5723;DHT22;2886;49.722;8.612;2022-10-26T06:11:59;12.10;99.90
5723;DHT22;2886;49.722;8.612;2022-10-26T06:14:26;12.10;99.90
5723;DHT22;2886;49.722;8.612;2022-10-26T06:25:49;12.30;99.90
5723;DHT22;2886;49.722;8.612;2022-10-26T06:31:05;12.40;99.90
5723;DHT22;2886;49.722;8.612;2022-10-26T06:33:31;12.50;99.90
5723;DHT22;2886;49.722;8.612;2022-10-26T06:38:28;12.50;99.90
5723;DHT22;2886;49.722;8.612;2022-10-26T06:40:56;12.60;99.90
5723;DHT22;2886;49.722;8.612;2022-10-26T06:43:24;12.70;99.90
5723;DHT22;2886;49.722;8.612;2022-10-26T06:46:22;12.80;99.90
5723;DHT22;2886;49.722;8.612;2022-10-26T06:51:30;13.40;99.90
5723;DHT22;2886;49.722;8.612;2022-10-26T06:54:12;13.70;99.90
5723;DHT22;2886;49.722;8.612;2022-10-26T06:56:38;14.00;99.90
5723;DHT22;2886;49.722;8.612;2022-10-26T06:59:17;14.20;99.90
5723;DHT22;2886;49.722;8.612;2022-10-26T07:01:45;14.30;99.90
5723;DHT22;2886;49.722;8.612;2022-10-26T07:04:10;14.50;99.90
5723;DHT22;2886;49.722;8.612;2022-10-26T07:06:36;14.60;99.90
5723;DHT22;2886;49.722;8.612;2022-10-26T07:09:02;14.80;99.90
5723;DHT22;2886;49.722;8.612;2022-10-26T07:11:27;14.90;99.90
5723;DHT22;2886;49.722;8.612;2022-10-26T07:13:53;15.00;99.90
5723;DHT22;2886;49.722;8.612;2022-10-26T07:16:19;15.00;99.90
5723;DHT22;2886;49.722;8.612;2022-10-26T07:18:47;15.10;99.90
5723;DHT22;2886;49.722;8.612;2022-10-26T07:21:13;15.20;99.90
5723;DHT22;2886;49.722;8.612;2022-10-26T07:23:38;15.30;99.90
5723;DHT22;2886;49.722;8.612;2022-10-26T07:26:04;15.30;99.90
5723;DHT22;2886;49.722;8.612;2022-10-26T07:28:30;15.30;99.90
5723;DHT22;2886;49.722;8.612;2022-10-26T07:30:57;15.30;99.90
5723;DHT22;2886;49.722;8.612;2022-10-26T07:33:23;15.40;99.90
5723;DHT22;2886;49.722;8.612;2022-10-26T07:35:48;15.30;99.90
5723;DHT22;2886;49.722;8.612;2022-10-26T07:38:14;15.40;99.90
5723;DHT22;2886;49.722;8.612;2022-10-26T07:40:40;15.40;99.90
5723;DHT22;2886;49.722;8.612;2022-10-26T07:43:05;15.40;99.90
5723;DHT22;2886;49.722;8.612;2022-10-26T07:45:31;15.50;99.90
5723;DHT22;2886;49.722;8.612;2022-10-26T07:47:57;15.40;99.90
5723;DHT22;2886;49.722;8.612;2022-10-26T07:50:23;15.50;99.90
5723;DHT22;2886;49.722;8.612;2022-10-26T07:52:49;15.50;99.90
5723;DHT22;2886;49.722;8.612;2022-10-26T07:55:15;15.60;99.90
5723;DHT22;2886;49.722;8.612;2022-10-26T07:57:40;15.60;99.90
5723;DHT22;2886;49.722;8.612;2022-10-26T08:00:07;15.60;99.90
5723;DHT22;2886;49.722;8.612;2022-10-26T08:02:34;15.60;99.90
5723;DHT22;2886;49.722;8.612;2022-10-26T08:05:00;15.60;99.90
5723;DHT22;2886;49.722;8.612;2022-10-26T08:07:26;15.70;99.90
5723;DHT22;2886;49.722;8.612;2022-10-26T08:09:52;15.80;99.90
5723;DHT22;2886;49.722;8.612;2022-10-26T08:12:18;15.80;99.90
5723;DHT22;2886;49.722;8.612;2022-10-26T08:14:45;15.80;99.90
5723;DHT22;2886;49.722;8.612;2022-10-26T08:17:11;15.80;99.90
5723;DHT22;2886;49.722;8.612;2022-10-26T08:19:36;15.80;99.90
5723;DHT22;2886;49.722;8.612;2022-10-26T08:22:02;15.90;99.90
5723;DHT22;2886;49.722;8.612;2022-10-26T08:24:28;16.00;99.90
5723;DHT22;2886;49.722;8.612;2022-10-26T08:26:54;16.00;99.90
5723;DHT22;2886;49.722;8.612;2022-10-26T08:29:21;16.00;99.90
5723;DHT22;2886;49.722;8.612;2022-10-26T08:31:47;16.00;99.90
5723;DHT22;2886;49.722;8.612;2022-10-26T08:34:13;16.00;99.90
5723;DHT22;2886;49.722;8.612;2022-10-26T08:36:39;16.10;99.90
5723;DHT22;2886;49.722;8.612;2022-10-26T08:39:05;16.20;99.90
5723;DHT22;2886;49.722;8.612;2022-10-26T08:41:43;16.30;99.90
5723;DHT22;2886;49.722;8.612;2022-10-26T08:46:47;16.40;99.90
5723;DHT22;2886;49.722;8.612;2022-10-26T08:49:21;16.40;99.90
5723;DHT22;2886;49.722;8.612;2022-10-26T08:51:49;16.60;99.90
5723;DHT22;2886;49.722;8.612;2022-10-26T08:57:09;16.80;99.90
5723;DHT22;2886;49.722;8.612;2022-10-26T08:59:37;16.80;99.90
5723;DHT22;2886;49.722;8.612;2022-10-26T09:02:16;16.90;99.90
5723;DHT22;2886;49.722;8.612;2022-10-26T09:04:42;17.00;99.90
5723;DHT22;2886;49.722;8.612;2022-10-26T09:07:19;17.20;99.90
5723;DHT22;2886;49.722;8.612;2022-10-26T09:10:05;17.80;99.90
5723;DHT22;2886;49.722;8.612;2022-10-26T09:12:54;17.90;99.90
5723;DHT22;2886;49.722;8.612;2022-10-26T09:26:01;17.60;99.90
5723;DHT22;2886;49.722;8.612;2022-10-26T09:28:35;17.50;99.90
5723;DHT22;2886;49.722;8.612;2022-10-26T09:31:02;17.40;99.90
5723;DHT22;2886;49.722;8.612;2022-10-26T09:33:31;17.40;99.90
5723;DHT22;2886;49.722;8.612;2022-10-26T09:36:05;17.40;99.90
5723;DHT22;2886;49.722;8.612;2022-10-26T09:39:21;17.40;99.90
5723;DHT22;2886;49.722;8.612;2022-10-26T09:41:37;17.50;99.90
5723;DHT22;2886;49.722;8.612;2022-10-26T09:44:28;17.50;99.90
5723;DHT22;2886;49.722;8.612;2022-10-26T09:49:54;17.50;99.90
5723;DHT22;2886;49.722;8.612;2022-10-26T09:52:20;17.60;99.90
5723;DHT22;2886;49.722;8.612;2022-10-26T09:54:46;17.60;99.90
5723;DHT22;2886;49.722;8.612;2022-10-26T09:57:14;18.00;99.90
5723;DHT22;2886;49.722;8.612;2022-10-26T09:59:40;18.10;99.90
5723;DHT22;2886;49.722;8.612;2022-10-26T10:02:34;18.30;99.90
5723;DHT22;2886;49.722;8.612;2022-10-26T10:05:00;18.50;99.90
5723;DHT22;2886;49.722;8.612;2022-10-26T10:07:26;18.70;99.90
5723;DHT22;2886;49.722;8.612;2022-10-26T10:10:16;18.90;99.90
5723;DHT22;2886;49.722;8.612;2022-10-26T10:12:43;18.70;99.90
5723;DHT22;2886;49.722;8.612;2022-10-26T10:15:23;18.50;99.90
5723;DHT22;2886;49.722;8.612;2022-10-26T10:17:51;18.50;99.90
5723;DHT22;2886;49.722;8.612;2022-10-26T10:20:22;18.40;99.90
5723;DHT22;2886;49.722;8.612;2022-10-26T10:22:57;18.20;99.90
5723;DHT22;2886;49.722;8.612;2022-10-26T10:25:38;18.20;99.90
5723;DHT22;2886;49.722;8.612;2022-10-26T10:28:26;18.10;99.90
5723;DHT22;2886;49.722;8.612;2022-10-26T10:30:54;18.10;99.90
5723;DHT22;2886;49.722;8.612;2022-10-26T10:33:22;18.00;99.90
5723;DHT22;2886;49.722;8.612;2022-10-26T10:35:50;18.10;99.90
5723;DHT22;2886;49.722;8.612;2022-10-26T10:38:19;18.20;99.90
5723;DHT22;2886;49.722;8.612;2022-10-26T10:40:52;18.30;99.90
5723;DHT22;2886;49.722;8.612;2022-10-26T10:43:19;18.40;99.90
5723;DHT22;2886;49.722;8.612;2022-10-26T10:45:50;18.50;99.90
5723;DHT22;2886;49.722;8.612;2022-10-26T10:48:20;18.60;99.90
5723;DHT22;2886;49.722;8.612;2022-10-26T10:51:06;18.70;99.90
5723;DHT22;2886;49.722;8.612;2022-10-26T10:53:50;18.70;99.90
5723;DHT22;2886;49.722;8.612;2022-10-26T10:56:27;18.70;99.90
5723;DHT22;2886;49.722;8.612;2022-10-26T11:01:43;18.80;99.90
5723;DHT22;2886;49.722;8.612;2022-10-26T11:04:20;19.00;99.90
5723;DHT22;2886;49.722;8.612;2022-10-26T11:06:50;19.10;99.90
5723;DHT22;2886;49.722;8.612;2022-10-26T11:09:24;19.30;99.90
5723;DHT22;2886;49.722;8.612;2022-10-26T11:11:57;19.60;99.90
5723;DHT22;2886;49.722;8.612;2022-10-26T11:14:33;19.90;99.90
5723;DHT22;2886;49.722;8.612;2022-10-26T11:17:13;19.90;99.90
5723;DHT22;2886;49.722;8.612;2022-10-26T11:20:04;20.00;99.90
5723;DHT22;2886;49.722;8.612;2022-10-26T11:22:52;20.10;99.90
5723;DHT22;2886;49.722;8.612;2022-10-26T11:25:50;20.20;99.90
5723;DHT22;2886;49.722;8.612;2022-10-26T11:28:44;20.40;99.90
5723;DHT22;2886;49.722;8.612;2022-10-26T11:31:20;20.30;99.90
5723;DHT22;2886;49.722;8.612;2022-10-26T11:36:29;20.10;99.90
5723;DHT22;2886;49.722;8.612;2022-10-26T11:39:17;20.10;99.90
5723;DHT22;2886;49.722;8.612;2022-10-26T11:41:55;20.10;99.90
5723;DHT22;2886;49.722;8.612;2022-10-26T11:45:22;20.20;99.90
5723;DHT22;2886;49.722;8.612;2022-10-26T11:47:39;20.20;99.90
5723;DHT22;2886;49.722;8.612;2022-10-26T11:50:16;20.30;99.90
5723;DHT22;2886;49.722;8.612;2022-10-26T11:55:30;20.30;99.90
5723;DHT22;2886;49.722;8.612;2022-10-26T11:57:56;20.30;99.90
5723;DHT22;2886;49.722;8.612;2022-10-26T12:00:23;20.30;99.90
5723;DHT22;2886;49.722;8.612;2022-10-26T12:03:11;20.40;99.90
5723;DHT22;2886;49.722;8.612;2022-10-26T12:08:42;20.40;99.90
5723;DHT22;2886;49.722;8.612;2022-10-26T12:11:11;20.40;99.90
5723;DHT22;2886;49.722;8.612;2022-10-26T12:13:42;20.40;99.90
5723;DHT22;2886;49.722;8.612;2022-10-26T12:19:52;20.40;99.90
5723;DHT22;2886;49.722;8.612;2022-10-26T12:21:52;20.50;99.90
5723;DHT22;2886;49.722;8.612;2022-10-26T12:26:57;20.60;99.90
5723;DHT22;2886;49.722;8.612;2022-10-26T12:29:36;20.60;99.90
5723;DHT22;2886;49.722;8.612;2022-10-26T12:34:59;20.70;99.90
5723;DHT22;2886;49.722;8.612;2022-10-26T12:37:34;20.70;99.90
5723;DHT22;2886;49.722;8.612;2022-10-26T12:43:42;20.70;99.90
5723;DHT22;2886;49.722;8.612;2022-10-26T12:48:42;20.70;99.90
5723;DHT22;2886;49.722;8.612;2022-10-26T12:54:02;20.60;99.90
5723;DHT22;2886;49.722;8.612;2022-10-26T12:56:49;20.60;99.90
5723;DHT22;2886;49.722;8.612;2022-10-26T12:59:25;20.70;99.90
5723;DHT22;2886;49.722;8.612;2022-10-26T13:05:23;20.80;99.90
5723;DHT22;2886;49.722;8.612;2022-10-26T13:07:51;20.90;99.90
5723;DHT22;2886;49.722;8.612;2022-10-26T13:10:22;20.90;99.90
5723;DHT22;2886;49.722;8.612;2022-10-26T13:12:52;21.10;99.90
5723;DHT22;2886;49.722;8.612;2022-10-26T13:15:23;21.10;99.90
5723;DHT22;2886;49.722;8.612;2022-10-26T13:18:14;21.20;99.90
5723;DHT22;2886;49.722;8.612;2022-10-26T13:21:10;21.30;99.90
5723;DHT22;2886;49.722;8.612;2022-10-26T13:24:00;21.20;99.90
5723;DHT22;2886;49.722;8.612;2022-10-26T13:26:30;21.00;99.90
5723;DHT22;2886;49.722;8.612;2022-10-26T13:28:58;20.90;99.90
5723;DHT22;2886;49.722;8.612;2022-10-26T13:34:16;20.80;99.90
5723;DHT22;2886;49.722;8.612;2022-10-26T13:36:58;20.60;99.90
5723;DHT22;2886;49.722;8.612;2022-10-26T13:39:31;20.50;99.90
5723;DHT22;2886;49.722;8.612;2022-10-26T13:42:00;20.40;99.90
5723;DHT22;2886;49.722;8.612;2022-10-26T13:47:05;20.30;99.90
5723;DHT22;2886;49.722;8.612;2022-10-26T13:49:37;20.30;99.90
5723;DHT22;2886;49.722;8.612;2022-10-26T13:52:05;20.20;99.90
5723;DHT22;2886;49.722;8.612;2022-10-26T13:54:54;20.10;99.90
5723;DHT22;2886;49.722;8.612;2022-10-26T13:57:34;20.10;99.90
5723;DHT22;2886;49.722;8.612;2022-10-26T14:00:07;20.00;99.90
5723;DHT22;2886;49.722;8.612;2022-10-26T14:02:34;20.00;99.90
5723;DHT22;2886;49.722;8.612;2022-10-26T14:05:08;20.00;99.90
5723;DHT22;2886;49.722;8.612;2022-10-26T14:12:49;19.80;99.90
5723;DHT22;2886;49.722;8.612;2022-10-26T14:15:15;19.80;99.90
5723;DHT22;2886;49.722;8.612;2022-10-26T14:17:49;19.80;99.90
5723;DHT22;2886;49.722;8.612;2022-10-26T14:20:21;19.80;99.90
5723;DHT22;2886;49.722;8.612;2022-10-26T14:22:48;19.80;99.90
5723;DHT22;2886;49.722;8.612;2022-10-26T14:25:23;19.80;99.90
5723;DHT22;2886;49.722;8.612;2022-10-26T14:27:49;19.70;99.90
5723;DHT22;2886;49.722;8.612;2022-10-26T14:32:51;19.80;99.90
5723;DHT22;2886;49.722;8.612;2022-10-26T14:35:19;19.70;99.90
5723;DHT22;2886;49.722;8.612;2022-10-26T14:38:19;19.70;99.90
5723;DHT22;2886;49.722;8.612;2022-10-26T14:40:47;19.60;99.90
5723;DHT22;2886;49.722;8.612;2022-10-26T14:43:20;19.70;99.90
5723;DHT22;2886;49.722;8.612;2022-10-26T14:45:48;19.60;99.90
5723;DHT22;2886;49.722;8.612;2022-10-26T14:48:30;19.60;99.90
5723;DHT22;2886;49.722;8.612;2022-10-26T14:51:17;19.60;99.90
5723;DHT22;2886;49.722;8.612;2022-10-26T14:53:51;19.60;99.90
5723;DHT22;2886;49.722;8.612;2022-10-26T14:58:46;19.60;99.90
5723;DHT22;2886;49.722;8.612;2022-10-26T15:01:23;19.50;99.90
5723;DHT22;2886;49.722;8.612;2022-10-26T15:04:20;19.50;99.90
5723;DHT22;2886;49.722;8.612;2022-10-26T15:06:47;19.50;99.90
5723;DHT22;2886;49.722;8.612;2022-10-26T15:12:35;19.50;99.90
5723;DHT22;2886;49.722;8.612;2022-10-26T15:20:26;19.50;99.90
5723;DHT22;2886;49.722;8.612;2022-10-26T15:23:01;19.40;99.90
5723;DHT22;2886;49.722;8.612;2022-10-26T15:25:32;19.40;99.90
5723;DHT22;2886;49.722;8.612;2022-10-26T15:36:29;19.30;99.90
5723;DHT22;2886;49.722;8.612;2022-10-26T15:38:55;19.20;99.90
5723;DHT22;2886;49.722;8.612;2022-10-26T15:41:34;19.20;99.90
5723;DHT22;2886;49.722;8.612;2022-10-26T15:44:03;19.20;99.90
5723;DHT22;2886;49.722;8.612;2022-10-26T15:46:35;19.10;99.90
5723;DHT22;2886;49.722;8.612;2022-10-26T15:49:05;19.10;99.90
5723;DHT22;2886;49.722;8.612;2022-10-26T15:51:31;19.00;99.90
5723;DHT22;2886;49.722;8.612;2022-10-26T15:53:57;18.90;99.90
5723;DHT22;2886;49.722;8.612;2022-10-26T15:56:25;18.80;99.90
5723;DHT22;2886;49.722;8.612;2022-10-26T15:58:51;18.70;99.90
5723;DHT22;2886;49.722;8.612;2022-10-26T16:01:23;18.70;99.90
5723;DHT22;2886;49.722;8.612;2022-10-26T16:03:50;18.60;99.90
5723;DHT22;2886;49.722;8.612;2022-10-26T16:06:27;18.60;99.90
5723;DHT22;2886;49.722;8.612;2022-10-26T16:08:56;18.50;99.90
5723;DHT22;2886;49.722;8.612;2022-10-26T16:11:22;18.40;99.90
5723;DHT22;2886;49.722;8.612;2022-10-26T16:13:48;18.40;99.90
5723;DHT22;2886;49.722;8.612;2022-10-26T16:16:18;18.30;99.90
5723;DHT22;2886;49.722;8.612;2022-10-26T16:18:44;18.30;99.90
5723;DHT22;2886;49.722;8.612;2022-10-26T16:21:14;18.20;99.90
5723;DHT22;2886;49.722;8.612;2022-10-26T16:23:41;18.10;99.90
5723;DHT22;2886;49.722;8.612;2022-10-26T16:26:07;18.10;99.90
5723;DHT22;2886;49.722;8.612;2022-10-26T16:28:34;18.10;99.90
5723;DHT22;2886;49.722;8.612;2022-10-26T16:31:02;18.00;99.90
5723;DHT22;2886;49.722;8.612;2022-10-26T16:33:28;18.00;99.90
5723;DHT22;2886;49.722;8.612;2022-10-26T16:35:57;18.00;99.90
5723;DHT22;2886;49.722;8.612;2022-10-26T16:38:24;17.90;99.90
5723;DHT22;2886;49.722;8.612;2022-10-26T16:41:03;17.90;99.90
5723;DHT22;2886;49.722;8.612;2022-10-26T16:43:30;17.80;99.90
5723;DHT22;2886;49.722;8.612;2022-10-26T16:45:57;17.80;99.90
5723;DHT22;2886;49.722;8.612;2022-10-26T16:48:23;17.70;99.90
5723;DHT22;2886;49.722;8.612;2022-10-26T16:50:49;17.60;99.90
5723;DHT22;2886;49.722;8.612;2022-10-26T16:53:14;17.60;99.90
5723;DHT22;2886;49.722;8.612;2022-10-26T16:55:40;17.60;99.90
5723;DHT22;2886;49.722;8.612;2022-10-26T16:58:06;17.60;99.90
5723;DHT22;2886;49.722;8.612;2022-10-26T17:00:34;17.60;99.90
5723;DHT22;2886;49.722;8.612;2022-10-26T17:03:00;17.50;99.90
5723;DHT22;2886;49.722;8.612;2022-10-26T17:05:27;17.50;99.90
5723;DHT22;2886;49.722;8.612;2022-10-26T17:07:53;17.40;99.90
5723;DHT22;2886;49.722;8.612;2022-10-26T17:10:19;17.40;99.90
5723;DHT22;2886;49.722;8.612;2022-10-26T17:12:45;17.30;99.90
5723;DHT22;2886;49.722;8.612;2022-10-26T17:15:11;17.30;99.90
5723;DHT22;2886;49.722;8.612;2022-10-26T17:17:36;17.30;99.90
5723;DHT22;2886;49.722;8.612;2022-10-26T17:20:03;17.20;99.90
5723;DHT22;2886;49.722;8.612;2022-10-26T17:22:29;17.20;99.90
5723;DHT22;2886;49.722;8.612;2022-10-26T17:24:55;17.10;99.90
5723;DHT22;2886;49.722;8.612;2022-10-26T17:27:20;17.10;99.90
5723;DHT22;2886;49.722;8.612;2022-10-26T17:29:47;17.10;99.90
5723;DHT22;2886;49.722;8.612;2022-10-26T17:32:14;17.10;99.90
5723;DHT22;2886;49.722;8.612;2022-10-26T17:34:40;17.00;99.90
5723;DHT22;2886;49.722;8.612;2022-10-26T17:37:06;17.00;99.90
5723;DHT22;2886;49.722;8.612;2022-10-26T17:39:32;17.00;99.90
5723;DHT22;2886;49.722;8.612;2022-10-26T17:41:57;17.00;99.90
5723;DHT22;2886;49.722;8.612;2022-10-26T17:44:23;17.10;99.90
5723;DHT22;2886;49.722;8.612;2022-10-26T17:46:49;17.10;99.90
5723;DHT22;2886;49.722;8.612;2022-10-26T17:49:15;17.10;99.90
5723;DHT22;2886;49.722;8.612;2022-10-26T17:51:40;17.10;99.90
5723;DHT22;2886;49.722;8.612;2022-10-26T17:54:06;17.10;99.90
5723;DHT22;2886;49.722;8.612;2022-10-26T17:56:33;17.10;99.90
5723;DHT22;2886;49.722;8.612;2022-10-26T17:59:04;17.10;99.90
5723;DHT22;2886;49.722;8.612;2022-10-26T18:01:31;17.10;99.90
5723;DHT22;2886;49.722;8.612;2022-10-26T18:03:57;17.20;99.90
5723;DHT22;2886;49.722;8.612;2022-10-26T18:06:23;17.20;99.90
5723;DHT22;2886;49.722;8.612;2022-10-26T18:08:49;17.10;99.90
5723;DHT22;2886;49.722;8.612;2022-10-26T18:11:18;17.10;99.90
5723;DHT22;2886;49.722;8.612;2022-10-26T18:13:45;17.10;99.90
5723;DHT22;2886;49.722;8.612;2022-10-26T18:16:13;17.10;99.90
5723;DHT22;2886;49.722;8.612;2022-10-26T18:18:42;17.10;99.90
5723;DHT22;2886;49.722;8.612;2022-10-26T18:21:11;17.10;99.90
5723;DHT22;2886;49.722;8.612;2022-10-26T18:23:37;17.10;99.90
5723;DHT22;2886;49.722;8.612;2022-10-26T18:26:16;17.10;99.90
5723;DHT22;2886;49.722;8.612;2022-10-26T18:28:42;17.10;99.90
5723;DHT22;2886;49.722;8.612;2022-10-26T18:31:11;17.10;99.90
5723;DHT22;2886;49.722;8.612;2022-10-26T18:33:37;17.10;99.90
5723;DHT22;2886;49.722;8.612;2022-10-26T18:38:32;16.90;99.90
5723;DHT22;2886;49.722;8.612;2022-10-26T18:40:58;16.90;99.90
5723;DHT22;2886;49.722;8.612;2022-10-26T18:43:25;16.90;99.90